Time;durP1;ratioP1;P1;durP2;ratioP2;P2;SDS_P1;SDS_P2;PMS_P1;PMS_P2;Temp;Humidity;BMP_temperature;BMP_pressure;BME280_temperature;BME280_humidity;BME280_pressure;Samples;Min_cycle;Max_cycle;Signal;HPM_P1;HPM_P2
2021/09/09 00:02:59;;;;;;;7.38;3.70;;;26.70;36.60;;;;;;6230072;28;20363;-78
2021/09/09 00:06:00;;;;;;;8.38;3.33;;;26.70;36.70;;;;;;6227403;28;20038;-78
2021/09/09 00:09:01;;;;;;;8.70;3.40;;;26.70;36.80;;;;;;6247046;28;20092;-77
2021/09/09 00:12:02;;;;;;;6.10;3.35;;;26.70;36.90;;;;;;6247689;28;20038;-78
2021/09/09 00:15:05;;;;;;;7.68;3.60;;;26.70;37.00;;;;;;6246112;28;20103;-77
2021/09/09 00:18:07;;;;;;;8.30;3.13;;;26.60;37.10;;;;;;6240586;28;20052;-77
2021/09/09 00:21:08;;;;;;;7.07;3.50;;;26.60;37.10;;;;;;6230269;28;20589;-77
2021/09/09 00:24:10;;;;;;;4.90;3.53;;;26.60;37.20;;;;;;6246749;28;20030;-77
2021/09/09 00:27:12;;;;;;;8.60;3.80;;;26.60;37.40;;;;;;6229434;28;20037;-77
2021/09/09 00:30:14;;;;;;;6.38;3.00;;;26.60;37.60;;;;;;6224820;28;20059;-77
2021/09/09 00:33:16;;;;;;;6.20;3.50;;;26.60;37.70;;;;;;6244910;28;20052;-78
2021/09/09 00:36:17;;;;;;;7.55;3.40;;;26.60;37.90;;;;;;6227546;28;20038;-78
2021/09/09 00:39:18;;;;;;;6.10;3.25;;;26.60;38.00;;;;;;6225876;28;20435;-78
2021/09/09 00:42:19;;;;;;;4.60;2.90;;;26.60;38.10;;;;;;6246295;28;20049;-77
2021/09/09 00:45:20;;;;;;;9.88;3.50;;;26.50;38.20;;;;;;6246858;28;20359;-78
2021/09/09 00:48:23;;;;;;;6.53;3.85;;;26.50;38.60;;;;;;6232631;28;20041;-77
2021/09/09 00:51:24;;;;;;;9.32;3.80;;;26.40;38.90;;;;;;6243919;28;20033;-77
2021/09/09 00:54:25;;;;;;;11.85;3.65;;;26.40;39.40;;;;;;6246398;28;20417;-77
2021/09/09 00:57:26;;;;;;;8.48;4.07;;;26.40;39.60;;;;;;6246371;28;20041;-77
2021/09/09 01:00:27;;;;;;;6.88;3.85;;;26.30;39.70;;;;;;6224161;28;20033;-77
2021/09/09 01:03:28;;;;;;;6.28;4.00;;;26.30;39.90;;;;;;6236014;28;20042;-77
2021/09/09 01:06:29;;;;;;;5.55;3.63;;;26.30;40.00;;;;;;6247273;28;20048;-76
2021/09/09 01:09:30;;;;;;;6.30;4.05;;;26.30;40.00;;;;;;6245636;28;20030;-76
2021/09/09 01:12:31;;;;;;;13.93;3.58;;;26.20;40.20;;;;;;6251844;28;20060;-76
2021/09/09 01:15:38;;;;;;;6.80;3.45;;;26.20;40.30;;;;;;6250904;28;20041;-76
2021/09/09 01:18:39;;;;;;;7.75;3.38;;;26.00;40.50;;;;;;6250987;28;20041;-78
2021/09/09 01:21:41;;;;;;;6.53;3.42;;;25.90;40.70;;;;;;6249747;28;20119;-76
2021/09/09 01:24:42;;;;;;;6.95;3.65;;;25.70;40.80;;;;;;6248269;28;20030;-77
2021/09/09 01:27:42;;;;;;;6.38;3.22;;;25.60;41.00;;;;;;6250297;28;20045;-77
2021/09/09 01:30:43;;;;;;;10.93;2.97;;;25.50;41.10;;;;;;6233330;28;20474;-77
2021/09/09 01:33:44;;;;;;;6.63;3.30;;;25.50;41.20;;;;;;6233187;28;20072;-76
2021/09/09 01:36:46;;;;;;;9.05;3.10;;;25.40;41.30;;;;;;6250049;28;20046;-76
2021/09/09 01:39:47;;;;;;;8.50;3.45;;;25.40;41.40;;;;;;6217384;28;20117;-76
2021/09/09 01:42:48;;;;;;;6.18;3.13;;;25.30;41.50;;;;;;6249690;28;20033;-77
2021/09/09 01:45:49;;;;;;;6.65;3.38;;;25.30;41.70;;;;;;6249029;28;20044;-77
2021/09/09 01:48:50;;;;;;;6.30;3.35;;;25.30;42.00;;;;;;6249632;28;20052;-77
2021/09/09 01:51:51;;;;;;;9.65;3.47;;;25.20;42.20;;;;;;6249523;28;20033;-77
2021/09/09 01:54:52;;;;;;;7.47;3.22;;;25.10;42.30;;;;;;6249690;28;20455;-77
2021/09/09 01:57:53;;;;;;;10.88;3.15;;;25.10;42.40;;;;;;6250778;28;20037;-77
2021/09/09 02:00:57;;;;;;;6.50;3.60;;;25.10;42.50;;;;;;6232737;28;20045;-77
2021/09/09 02:03:58;;;;;;;12.25;3.75;;;25.10;42.70;;;;;;6249280;28;20030;-78
2021/09/09 02:06:59;;;;;;;9.02;3.58;;;25.00;42.90;;;;;;6233129;28;20409;-76
2021/09/09 02:10:00;;;;;;;7.60;3.17;;;25.00;42.90;;;;;;6249620;28;20103;-76
2021/09/09 02:13:01;;;;;;;6.28;3.40;;;25.00;43.00;;;;;;6249390;28;20034;-77
2021/09/09 02:16:02;;;;;;;6.32;3.05;;;25.00;43.00;;;;;;6248772;28;20565;-77
2021/09/09 02:19:03;;;;;;;5.18;3.22;;;25.00;43.10;;;;;;6249823;28;20128;-77
2021/09/09 02:22:04;;;;;;;6.03;3.00;;;25.00;43.10;;;;;;6251438;28;20041;-77
2021/09/09 02:25:05;;;;;;;6.20;3.28;;;25.00;43.10;;;;;;6232361;28;20048;-77
2021/09/09 02:28:06;;;;;;;7.57;3.45;;;25.00;43.20;;;;;;6232772;28;20041;-77
2021/09/09 02:31:07;;;;;;;5.72;3.08;;;25.00;43.20;;;;;;6248805;28;20053;-77
2021/09/09 02:34:08;;;;;;;5.03;2.88;;;24.90;43.20;;;;;;6232221;28;20037;-76
2021/09/09 02:37:09;;;;;;;4.15;2.70;;;25.00;43.20;;;;;;6230641;28;20029;-77
2021/09/09 02:40:12;;;;;;;6.43;3.45;;;25.00;43.20;;;;;;6248038;28;20041;-78
2021/09/09 02:43:13;;;;;;;7.28;3.28;;;25.00;43.30;;;;;;6249079;28;20088;-77
2021/09/09 02:46:14;;;;;;;5.55;3.38;;;25.00;43.30;;;;;;6248341;28;20371;-78
2021/09/09 02:49:14;;;;;;;4.43;3.40;;;25.00;43.20;;;;;;6248487;28;20045;-78
2021/09/09 02:52:15;;;;;;;9.23;3.55;;;25.10;43.20;;;;;;6248251;28;20478;-77
2021/09/09 02:55:17;;;;;;;8.32;3.58;;;25.10;43.10;;;;;;6248285;28;20037;-77
2021/09/09 02:58:18;;;;;;;8.88;4.07;;;25.10;43.00;;;;;;6248423;28;20032;-77
2021/09/09 03:01:19;;;;;;;9.73;3.28;;;25.10;43.00;;;;;;6248145;28;20394;-77
2021/09/09 03:04:20;;;;;;;8.50;3.47;;;25.20;43.10;;;;;;6248835;28;20041;-77
2021/09/09 03:07:21;;;;;;;5.82;3.35;;;25.20;43.20;;;;;;6248017;28;20097;-77
2021/09/09 03:10:22;;;;;;;10.80;5.15;;;25.20;43.30;;;;;;6230634;28;20033;-77
2021/09/09 03:13:23;;;;;;;9.45;4.13;;;25.20;43.40;;;;;;6249458;28;20041;-77
2021/09/09 03:16:23;;;;;;;8.52;3.92;;;25.20;43.40;;;;;;6247971;28;21583;-77
2021/09/09 03:19:24;;;;;;;6.00;3.10;;;25.20;43.40;;;;;;6229948;28;20478;-77
2021/09/09 03:22:25;;;;;;;7.90;3.63;;;25.30;43.40;;;;;;6247816;28;20049;-77
2021/09/09 03:25:26;;;;;;;9.05;3.75;;;25.20;43.50;;;;;;6248965;28;20041;-76
2021/09/09 03:28:27;;;;;;;5.97;3.70;;;25.20;43.50;;;;;;6245734;28;20653;-77
2021/09/09 03:31:28;;;;;;;10.75;3.53;;;25.20;43.60;;;;;;6229467;28;20191;-77
2021/09/09 03:34:29;;;;;;;11.88;3.78;;;25.20;43.60;;;;;;6243906;28;20033;-77
2021/09/09 03:37:29;;;;;;;8.18;3.40;;;25.20;43.60;;;;;;6252728;28;20032;-77
2021/09/09 03:40:30;;;;;;;10.32;3.60;;;25.20;43.60;;;;;;6248267;28;20045;-77
2021/09/09 03:43:31;;;;;;;12.98;3.30;;;25.20;43.50;;;;;;6247747;28;20467;-75
2021/09/09 03:46:32;;;;;;;6.57;3.38;;;25.20;43.40;;;;;;6247429;28;20037;-78
2021/09/09 03:49:33;;;;;;;7.70;4.05;;;25.20;43.40;;;;;;6231022;28;20060;-78
2021/09/09 03:52:34;;;;;;;10.68;3.67;;;25.20;43.40;;;;;;6248462;28;20493;-77
2021/09/09 03:55:35;;;;;;;8.63;3.50;;;25.30;43.60;;;;;;6247171;28;20455;-78
2021/09/09 03:58:36;;;;;;;9.35;3.78;;;25.30;43.60;;;;;;6246551;28;20053;-77
2021/09/09 04:01:37;;;;;;;7.70;3.97;;;25.30;43.60;;;;;;6247041;28;20045;-77
2021/09/09 04:04:37;;;;;;;12.18;3.78;;;25.30;43.70;;;;;;6246142;28;20041;-77
2021/09/09 04:07:38;;;;;;;8.52;3.47;;;25.20;43.70;;;;;;6247002;28;20335;-76
2021/09/09 04:10:39;;;;;;;12.35;3.70;;;25.30;43.90;;;;;;6233852;28;20037;-77
2021/09/09 04:13:40;;;;;;;6.70;3.70;;;25.20;43.90;;;;;;6245886;28;20029;-76
2021/09/09 04:16:41;;;;;;;8.25;3.75;;;25.20;44.10;;;;;;6246483;28;20086;-76
2021/09/09 04:19:42;;;;;;;9.57;3.35;;;25.20;44.20;;;;;;6246694;28;20045;-77
2021/09/09 04:22:43;;;;;;;20.33;4.38;;;25.10;44.30;;;;;;6247394;28;20044;-77
2021/09/09 04:25:44;;;;;;;14.60;4.10;;;25.10;44.40;;;;;;6247915;28;20332;-77
2021/09/09 04:28:45;;;;;;;6.05;3.58;;;25.10;44.60;;;;;;6245572;28;20057;-77
2021/09/09 04:31:46;;;;;;;8.10;4.13;;;25.00;45.00;;;;;;6245516;28;20041;-78
2021/09/09 04:34:47;;;;;;;12.90;4.30;;;25.00;45.40;;;;;;6244315;28;20041;-78
2021/09/09 04:37:47;;;;;;;13.07;4.13;;;25.00;45.70;;;;;;6246543;28;20129;-77
2021/09/09 04:40:51;;;;;;;6.35;3.42;;;24.90;45.80;;;;;;6245468;28;20037;-77
2021/09/09 04:43:52;;;;;;;6.80;3.20;;;24.90;45.80;;;;;;6246125;28;20042;-77
2021/09/09 04:46:53;;;;;;;8.90;3.97;;;24.80;45.80;;;;;;6250379;28;20042;-77
2021/09/09 04:49:54;;;;;;;15.50;4.00;;;24.80;45.90;;;;;;6251364;28;20042;-77
2021/09/09 04:52:55;;;;;;;8.13;3.67;;;24.70;45.90;;;;;;6246692;28;20053;-78
2021/09/09 04:55:56;;;;;;;9.48;3.72;;;24.70;45.90;;;;;;6251182;28;20385;-77
2021/09/09 04:58:57;;;;;;;11.32;3.88;;;24.70;45.90;;;;;;6250759;28;20029;-77
2021/09/09 05:01:58;;;;;;;16.52;4.15;;;24.70;46.00;;;;;;6252627;28;20052;-78
2021/09/09 05:04:59;;;;;;;8.27;3.83;;;24.70;46.00;;;;;;6237984;28;20347;-76
2021/09/09 05:08:00;;;;;;;8.90;4.20;;;24.70;46.10;;;;;;6251921;28;20041;-79
2021/09/09 05:11:01;;;;;;;10.63;4.25;;;24.70;46.10;;;;;;6250967;28;20061;-78
2021/09/09 05:14:02;;;;;;;9.45;4.07;;;24.70;46.20;;;;;;6232102;28;20053;-78
2021/09/09 05:17:03;;;;;;;6.95;3.42;;;24.70;46.20;;;;;;6245371;28;20030;-78
2021/09/09 05:20:05;;;;;;;9.48;3.72;;;24.70;46.30;;;;;;6250969;28;20359;-78
2021/09/09 05:23:06;;;;;;;5.45;3.78;;;24.70;46.40;;;;;;6234333;28;20030;-78
2021/09/09 05:26:07;;;;;;;8.90;4.07;;;24.60;46.30;;;;;;6252137;28;20391;-78
2021/09/09 05:29:08;;;;;;;6.80;3.38;;;24.60;46.50;;;;;;6230938;28;20044;-77
2021/09/09 05:32:09;;;;;;;11.80;4.50;;;24.60;46.60;;;;;;6248869;28;20068;-78
2021/09/09 05:35:11;;;;;;;8.77;4.20;;;24.60;46.60;;;;;;6236346;28;20033;-77
2021/09/09 05:38:12;;;;;;;7.68;4.20;;;24.60;46.50;;;;;;6231052;28;20172;-77
2021/09/09 05:41:13;;;;;;;12.00;4.53;;;24.60;46.50;;;;;;6249424;28;20041;-78
2021/09/09 05:44:16;;;;;;;10.68;4.50;;;24.60;46.60;;;;;;6244383;28;20029;-78
2021/09/09 05:47:17;;;;;;;10.68;4.72;;;24.60;46.60;;;;;;6262401;28;20056;-76
2021/09/09 05:50:18;;;;;;;20.55;5.18;;;24.60;46.70;;;;;;6249913;28;20039;-78
2021/09/09 05:53:19;;;;;;;8.52;4.13;;;24.70;46.80;;;;;;6224850;28;20537;-77
2021/09/09 05:56:20;;;;;;;15.32;4.82;;;24.70;46.80;;;;;;6242108;28;20037;-77
2021/09/09 05:59:21;;;;;;;13.45;4.65;;;24.70;46.90;;;;;;6233297;28;20044;-77
2021/09/09 06:02:26;;;;;;;9.27;4.30;;;24.70;46.80;;;;;;6247960;28;20083;-77
2021/09/09 06:05:27;;;;;;;21.55;4.40;;;24.70;46.80;;;;;;6249432;28;20025;-77
2021/09/09 06:08:34;;;;;;;7.47;4.07;;;24.80;46.90;;;;;;6249699;28;20049;-76
2021/09/09 06:11:35;;;;;;;8.45;4.30;;;24.80;47.00;;;;;;6249815;28;20455;-77
2021/09/09 06:14:36;;;;;;;8.85;4.13;;;24.90;47.20;;;;;;6232027;28;20493;-77
2021/09/09 06:17:37;;;;;;;14.45;4.65;;;24.90;47.20;;;;;;6243609;28;20038;-77
2021/09/09 06:20:38;;;;;;;9.82;4.07;;;24.90;47.20;;;;;;6251428;28;20060;-77
2021/09/09 06:23:39;;;;;;;10.13;4.40;;;25.00;47.20;;;;;;6252923;28;20037;-76
2021/09/09 06:26:40;;;;;;;9.07;4.53;;;25.00;47.20;;;;;;6253262;28;20033;-78
2021/09/09 06:29:41;;;;;;;16.33;4.47;;;25.10;47.10;;;;;;6249582;28;20037;-78
2021/09/09 06:32:42;;;;;;;12.00;4.30;;;25.10;47.00;;;;;;6242800;28;20063;-78
2021/09/09 06:35:45;;;;;;;10.32;4.65;;;25.10;47.00;;;;;;6241488;28;20518;-76
2021/09/09 06:38:46;;;;;;;9.63;4.30;;;25.10;47.00;;;;;;6248447;28;20033;-77
2021/09/09 06:41:47;;;;;;;8.45;4.25;;;25.10;47.10;;;;;;6260327;28;20044;-78
2021/09/09 06:44:48;;;;;;;9.80;4.88;;;25.10;47.00;;;;;;6257307;28;20386;-77
2021/09/09 06:47:49;;;;;;;9.85;4.70;;;25.10;47.50;;;;;;6254689;28;20045;-77
2021/09/09 06:50:50;;;;;;;14.70;4.45;;;25.10;46.90;;;;;;6250117;28;20367;-79
2021/09/09 06:53:51;;;;;;;6.72;4.22;;;25.10;47.00;;;;;;6247364;28;20379;-78
2021/09/09 06:56:52;;;;;;;7.88;4.20;;;25.10;47.00;;;;;;6248232;28;20160;-78
2021/09/09 06:59:53;;;;;;;15.60;4.10;;;25.10;46.90;;;;;;6222611;28;20471;-76
2021/09/09 07:02:54;;;;;;;8.25;4.18;;;25.20;47.00;;;;;;6247996;28;20034;-77
2021/09/09 07:05:55;;;;;;;6.57;3.78;;;25.20;47.00;;;;;;6229499;28;20029;-77
2021/09/09 07:08:56;;;;;;;6.97;4.50;;;25.20;47.00;;;;;;6248048;28;20136;-78
2021/09/09 07:11:58;;;;;;;9.57;4.60;;;25.30;47.00;;;;;;6249761;28;20047;-77
2021/09/09 07:15:00;;;;;;;8.98;4.55;;;25.30;47.00;;;;;;6247507;28;20038;-77
2021/09/09 07:18:01;;;;;;;10.88;4.57;;;25.30;47.00;;;;;;6247999;28;20041;-78
2021/09/09 07:21:02;;;;;;;20.60;5.15;;;25.40;46.90;;;;;;6247624;28;20099;-77
2021/09/09 07:24:04;;;;;;;10.15;4.40;;;25.50;46.80;;;;;;6247483;28;20317;-76
2021/09/09 07:27:05;;;;;;;10.25;3.78;;;25.50;46.70;;;;;;6247442;28;20052;-77
2021/09/09 07:30:07;;;;;;;8.68;4.60;;;25.60;46.60;;;;;;6230125;28;20038;-77
2021/09/09 07:33:08;;;;;;;6.82;4.72;;;25.70;46.50;;;;;;6246054;28;20076;-77
2021/09/09 07:36:09;;;;;;;5.00;4.00;;;25.80;46.40;;;;;;6248277;28;20037;-77
2021/09/09 07:39:10;;;;;;;11.15;4.25;;;25.80;46.20;;;;;;6242394;28;20087;-77
2021/09/09 07:42:11;;;;;;;13.00;5.18;;;25.90;46.10;;;;;;6242455;28;20076;-78
2021/09/09 07:45:12;;;;;;;11.38;4.72;;;26.10;45.90;;;;;;6246348;28;20038;-77
2021/09/09 07:48:13;;;;;;;11.15;5.22;;;26.40;45.60;;;;;;6247209;28;20033;-77
2021/09/09 07:51:18;;;;;;;11.40;5.20;;;26.70;45.20;;;;;;6246422;28;20049;-78
2021/09/09 07:54:19;;;;;;;17.63;4.90;;;26.80;44.80;;;;;;6232231;28;20358;-77
2021/09/09 07:57:20;;;;;;;11.30;4.57;;;26.90;44.70;;;;;;6248307;28;20041;-77
2021/09/09 08:00:21;;;;;;;12.38;4.40;;;26.90;44.60;;;;;;6247171;28;20064;-76
2021/09/09 08:03:22;;;;;;;16.77;5.97;;;27.00;44.50;;;;;;6246755;28;20036;-77
2021/09/09 08:06:22;;;;;;;12.70;3.88;;;26.40;43.90;;;;;;6247180;28;20026;-77
2021/09/09 08:09:23;;;;;;;20.77;4.88;;;27.10;44.10;;;;;;6230493;28;20041;-77
2021/09/09 08:12:24;;;;;;;13.38;4.68;;;27.20;43.80;;;;;;6229928;28;20124;-77
2021/09/09 08:15:25;;;;;;;15.93;4.32;;;27.20;43.60;;;;;;6245578;28;20033;-77
2021/09/09 08:18:26;;;;;;;11.27;4.30;;;27.20;43.20;;;;;;6247698;28;20435;-77
2021/09/09 08:21:27;;;;;;;14.85;4.55;;;27.20;43.00;;;;;;6246820;28;20021;-77
2021/09/09 08:24:28;;;;;;;19.58;4.35;;;27.30;43.00;;;;;;6247399;28;20355;-78
2021/09/09 08:27:30;;;;;;;12.02;4.40;;;27.30;42.80;;;;;;6229401;28;20033;-77
2021/09/09 08:30:31;;;;;;;13.77;4.28;;;27.30;42.60;;;;;;6228451;28;20037;-79
2021/09/09 08:33:34;;;;;;;12.90;4.00;;;27.40;42.40;;;;;;6245459;28;20371;-77
2021/09/09 08:36:35;;;;;;;10.65;4.57;;;27.50;42.30;;;;;;6245708;28;20406;-77
2021/09/09 08:39:35;;;;;;;8.25;4.82;;;27.50;42.00;;;;;;6228942;28;20119;-77
2021/09/09 08:42:38;;;;;;;10.00;4.45;;;27.60;41.90;;;;;;6245827;28;20042;-79
2021/09/09 08:45:39;;;;;;;13.40;4.13;;;27.60;41.80;;;;;;6218094;28;20097;-78
2021/09/09 08:48:46;;;;;;;10.20;4.38;;;27.60;41.80;;;;;;6245345;28;20127;-78
2021/09/09 08:51:48;;;;;;;7.57;3.85;;;27.60;41.30;;;;;;6244907;28;20037;-77
2021/09/09 08:54:49;;;;;;;13.73;4.55;;;27.60;41.70;;;;;;6204187;28;20060;-77
2021/09/09 08:57:50;;;;;;;9.95;4.38;;;27.70;42.30;;;;;;6244399;28;20049;-77
2021/09/09 09:01:04;;;;;;;11.45;3.83;;;27.80;41.70;;;;;;6244075;28;20041;-78
2021/09/09 09:04:13;;;;;;;13.43;4.80;;;27.90;41.60;;;;;;6240959;28;20116;-78
2021/09/09 09:07:14;;;;;;;9.80;3.55;;;27.90;41.40;;;;;;6243381;28;20128;-76
2021/09/09 09:10:15;;;;;;;8.30;4.22;;;28.00;41.30;;;;;;6245310;28;20136;-77
2021/09/09 09:13:15;;;;;;;9.65;3.90;;;28.10;41.30;;;;;;6245475;28;20133;-79
2021/09/09 09:16:29;;;;;;;15.77;4.63;;;28.10;40.80;;;;;;6221741;28;20045;-79
2021/09/09 09:19:34;;;;;;;9.18;4.60;;;28.10;40.60;;;;;;6226582;28;20044;-77
2021/09/09 09:22:35;;;;;;;9.77;4.45;;;28.10;40.30;;;;;;6237934;28;20041;-79
2021/09/09 09:25:49;;;;;;;13.23;4.35;;;28.20;40.40;;;;;;6245472;28;20103;-79
2021/09/09 09:28:53;;;;;;;7.38;4.28;;;28.30;40.00;;;;;;6245051;28;20124;-77
2021/09/09 09:32:14;;;;;;;13.88;4.28;;;28.30;39.60;;;;;;6246794;28;20103;-78
2021/09/09 09:35:21;;;;;;;11.02;4.28;;;28.40;39.30;;;;;;6245322;28;20079;-77
2021/09/09 09:38:23;;;;;;;12.60;4.03;;;28.60;39.10;;;;;;6248635;28;20091;-78
2021/09/09 09:41:25;;;;;;;10.25;3.88;;;28.70;38.90;;;;;;6233638;28;20046;-78
2021/09/09 09:44:29;;;;;;;10.07;4.55;;;28.70;38.60;;;;;;6250815;28;20029;-77
2021/09/09 09:47:34;;;;;;;8.02;4.22;;;28.70;38.40;;;;;;6247480;28;20026;-77
2021/09/09 09:50:39;;;;;;;9.07;4.65;;;28.80;38.30;;;;;;6233449;28;20374;-78
2021/09/09 09:53:40;;;;;;;6.95;4.30;;;28.80;38.10;;;;;;6249897;28;20042;-78
2021/09/09 09:56:43;;;;;;;7.13;4.10;;;28.80;37.80;;;;;;6241037;28;20187;-78
2021/09/09 09:59:44;;;;;;;10.48;3.85;;;28.90;37.90;;;;;;6249283;28;20113;-78
2021/09/09 10:02:46;;;;;;;9.45;4.55;;;28.90;37.50;;;;;;6254982;28;20041;-77
2021/09/09 10:05:52;;;;;;;10.00;4.30;;;29.00;37.40;;;;;;6248526;28;20073;-79
2021/09/09 10:08:53;;;;;;;7.57;4.47;;;29.10;37.20;;;;;;6249880;28;20057;-79
2021/09/09 10:11:54;;;;;;;9.95;4.47;;;29.20;36.80;;;;;;6250352;28;20041;-78
2021/09/09 10:14:56;;;;;;;9.43;4.00;;;29.30;36.40;;;;;;6246577;28;20044;-77
2021/09/09 10:17:59;;;;;;;6.28;3.83;;;29.50;36.10;;;;;;6251875;28;20126;-78
2021/09/09 10:21:03;;;;;;;5.78;3.42;;;29.60;35.60;;;;;;6249012;28;20037;-79
2021/09/09 10:24:10;;;;;;;7.00;3.97;;;29.70;35.40;;;;;;6249899;28;20435;-77
2021/09/09 10:27:27;;;;;;;13.13;4.20;;;29.80;35.30;;;;;;6249634;28;20029;-78
2021/09/09 10:30:28;;;;;;;14.30;4.43;;;29.90;35.00;;;;;;6251005;28;21178;-77
2021/09/09 10:33:30;;;;;;;8.05;4.03;;;30.00;34.50;;;;;;6241239;28;20041;-78
2021/09/09 10:36:45;;;;;;;7.13;4.05;;;29.90;34.30;;;;;;6238911;28;20034;-78
2021/09/09 10:39:48;;;;;;;11.35;3.95;;;30.00;34.20;;;;;;6256993;28;20048;-77
2021/09/09 10:42:49;;;;;;;11.70;4.10;;;30.20;33.90;;;;;;6234928;28;20033;-79
2021/09/09 10:46:03;;;;;;;12.20;4.45;;;30.40;33.80;;;;;;6255236;28;20048;-79
2021/09/09 10:49:07;;;;;;;8.65;3.75;;;30.50;33.40;;;;;;6233124;28;20116;-79
2021/09/09 10:52:14;;;;;;;10.38;3.95;;;30.70;33.20;;;;;;6250093;28;20461;-78
2021/09/09 10:55:25;;;;;;;5.50;3.63;;;30.90;32.90;;;;;;6227186;28;20041;-79
2021/09/09 10:58:27;;;;;;;12.50;4.65;;;31.10;32.40;;;;;;6217610;28;20429;-77
2021/09/09 11:01:28;;;;;;;13.30;4.28;;;31.00;32.50;;;;;;6248773;28;20136;-78
2021/09/09 11:04:35;;;;;;;9.88;3.85;;;30.90;32.70;;;;;;6249694;28;20030;-77
2021/09/09 11:07:38;;;;;;;6.47;3.80;;;30.70;32.90;;;;;;6233532;28;20044;-76
2021/09/09 11:10:39;;;;;;;9.45;3.58;;;30.50;32.90;;;;;;6248812;28;20403;-77
2021/09/09 11:13:40;;;;;;;8.95;4.10;;;30.30;33.10;;;;;;6247443;28;20042;-80
2021/09/09 11:16:41;;;;;;;9.43;4.35;;;30.10;33.40;;;;;;6246159;28;20415;-77
2021/09/09 11:19:42;;;;;;;8.85;4.38;;;30.00;33.70;;;;;;6247474;28;20052;-78
2021/09/09 11:22:43;;;;;;;10.85;4.68;;;29.80;33.90;;;;;;6247111;28;20030;-78
2021/09/09 11:25:47;;;;;;;10.32;4.50;;;29.70;34.10;;;;;;6247477;28;20065;-79
2021/09/09 11:28:50;;;;;;;16.00;7.70;;;29.50;34.40;;;;;;6247357;28;20041;-78
2021/09/09 11:31:56;;;;;;;11.75;5.18;;;29.40;34.60;;;;;;6247830;28;20052;-78
2021/09/09 11:35:10;;;;;;;15.35;4.57;;;29.20;35.00;;;;;;6247925;28;20029;-76
2021/09/09 11:38:29;;;;;;;7.57;4.68;;;29.00;35.20;;;;;;6246142;28;20526;-77
2021/09/09 11:41:32;;;;;;;11.18;4.22;;;28.90;36.20;;;;;;6246667;28;20438;-77
2021/09/09 11:44:38;;;;;;;7.53;3.92;;;28.80;35.90;;;;;;6246528;28;20044;-77
2021/09/09 11:47:41;;;;;;;11.60;4.60;;;28.60;36.20;;;;;;6246494;28;20045;-78
2021/09/09 11:50:48;;;;;;;17.70;4.30;;;28.40;36.50;;;;;;6226267;28;20041;-78
2021/09/09 11:53:50;;;;;;;9.95;5.07;;;28.20;37.30;;;;;;6244084;28;20190;-78
2021/09/09 11:56:53;;;;;;;9.82;4.72;;;28.10;36.90;;;;;;6226749;28;20373;-78
2021/09/09 11:59:56;;;;;;;9.38;4.20;;;28.00;37.10;;;;;;6229959;28;20049;-77
2021/09/09 12:02:57;;;;;;;7.95;4.63;;;27.90;37.40;;;;;;6246371;28;20079;-78
2021/09/09 12:05:58;;;;;;;11.65;4.30;;;27.80;37.70;;;;;;6245789;28;20116;-77
2021/09/09 12:09:00;;;;;;;8.80;4.35;;;27.70;37.90;;;;;;6245830;28;20041;-77
2021/09/09 12:12:03;;;;;;;9.60;4.05;;;27.70;38.20;;;;;;6229974;28;20033;-77
2021/09/09 12:15:11;;;;;;;9.05;4.95;;;27.60;38.70;;;;;;6227871;28;20048;-77
2021/09/09 12:18:13;;;;;;;12.63;4.78;;;27.60;39.10;;;;;;6245067;28;20379;-77
2021/09/09 12:21:22;;;;;;;11.93;4.57;;;27.40;39.40;;;;;;6216231;28;20491;-77
2021/09/09 12:24:31;;;;;;;7.55;4.20;;;27.40;40.00;;;;;;6240013;28;20029;-77
2021/09/09 12:27:33;;;;;;;11.93;4.53;;;27.30;40.40;;;;;;6225233;28;20029;-77
2021/09/09 12:30:48;;;;;;;13.52;4.75;;;27.20;40.60;;;;;;6227045;28;20347;-76
2021/09/09 12:33:53;;;;;;;9.88;4.43;;;27.10;40.90;;;;;;6218094;28;20486;-76
2021/09/09 12:36:54;;;;;;;7.82;4.55;;;27.00;41.10;;;;;;6244992;28;20044;-76
2021/09/09 12:39:55;;;;;;;7.40;4.75;;;26.90;41.30;;;;;;6224991;28;20370;-77
2021/09/09 12:43:20;;;;;;;11.27;4.65;;;26.80;41.60;;;;;;6240816;28;20029;-76
2021/09/09 12:46:48;;;;;;;9.30;4.75;;;26.70;42.00;;;;;;6242184;28;20462;-76
2021/09/09 12:49:49;;;;;;;10.68;4.60;;;26.70;42.40;;;;;;6226872;28;20053;-77
2021/09/09 12:52:53;;;;;;;7.55;4.78;;;26.70;42.50;;;;;;6240927;28;20071;-76
2021/09/09 12:55:59;;;;;;;12.40;4.60;;;26.60;42.80;;;;;;6225204;28;20041;-76
2021/09/09 12:59:00;;;;;;;8.82;4.47;;;26.50;42.90;;;;;;6241514;28;20041;-77
2021/09/09 13:02:01;;;;;;;7.88;4.60;;;26.40;43.10;;;;;;6239771;28;20047;-76
2021/09/09 13:05:02;;;;;;;8.07;4.97;;;26.40;43.30;;;;;;6241885;28;20206;-76
2021/09/09 13:08:04;;;;;;;9.30;4.82;;;26.40;43.40;;;;;;6245692;28;20354;-77
2021/09/09 13:11:06;;;;;;;8.20;4.38;;;26.40;43.50;;;;;;6247997;28;20389;-77
2021/09/09 13:14:06;;;;;;;8.32;4.88;;;26.40;43.60;;;;;;6249175;28;20044;-77
2021/09/09 13:17:07;;;;;;;8.27;4.68;;;26.40;43.60;;;;;;6246073;28;20029;-76
2021/09/09 13:20:09;;;;;;;12.00;4.70;;;26.40;43.70;;;;;;6246808;28;20029;-76
2021/09/09 13:23:10;;;;;;;11.23;4.97;;;26.40;43.80;;;;;;6246927;28;20037;-78
2021/09/09 13:26:11;;;;;;;12.80;4.72;;;26.40;43.80;;;;;;6228972;28;20387;-77
2021/09/09 13:29:12;;;;;;;6.95;4.32;;;26.40;43.90;;;;;;6247468;28;20124;-78
2021/09/09 13:32:15;;;;;;;11.63;5.55;;;26.50;44.00;;;;;;6248107;28;20110;-78
2021/09/09 13:35:17;;;;;;;18.77;5.28;;;26.50;44.00;;;;;;6248407;28;20033;-78
2021/09/09 13:38:18;;;;;;;12.60;4.72;;;26.60;44.00;;;;;;6246967;28;20072;-77
2021/09/09 13:41:19;;;;;;;7.68;4.85;;;26.70;43.90;;;;;;6243438;28;20029;-78
2021/09/09 13:44:19;;;;;;;7.63;4.90;;;26.70;43.90;;;;;;6246414;28;20051;-76
2021/09/09 13:47:21;;;;;;;9.55;4.63;;;26.70;44.10;;;;;;6251965;28;20037;-77
2021/09/09 13:50:23;;;;;;;8.70;4.90;;;26.70;44.30;;;;;;6245393;28;20102;-77
2021/09/09 13:53:26;;;;;;;11.90;5.38;;;26.70;44.70;;;;;;6239121;28;20315;-77
2021/09/09 13:56:27;;;;;;;10.73;5.60;;;26.60;45.00;;;;;;6248742;28;20123;-78
2021/09/09 13:59:30;;;;;;;8.23;5.53;;;26.60;45.10;;;;;;6228395;28;20458;-77
2021/09/09 14:02:31;;;;;;;10.10;5.03;;;26.60;45.50;;;;;;6244764;28;20038;-77
2021/09/09 14:05:32;;;;;;;7.32;5.30;;;26.60;45.70;;;;;;6247943;28;20045;-76
2021/09/09 14:08:33;;;;;;;11.32;5.60;;;26.60;45.80;;;;;;6243116;28;20405;-77
2021/09/09 14:11:36;;;;;;;12.90;5.80;;;26.60;46.10;;;;;;6246090;28;20037;-77
2021/09/09 14:14:37;;;;;;;12.85;5.93;;;26.60;46.10;;;;;;6227799;28;20029;-77
2021/09/09 14:17:38;;;;;;;10.32;5.80;;;26.70;46.10;;;;;;6244642;28;20094;-77
2021/09/09 14:20:40;;;;;;;17.17;5.40;;;26.70;46.10;;;;;;6245921;28;20061;-77
2021/09/09 14:23:41;;;;;;;8.52;5.03;;;26.70;46.10;;;;;;6245871;28;20446;-78
2021/09/09 14:26:42;;;;;;;13.55;5.05;;;25.90;45.60;;;;;;6244716;28;20116;-77
2021/09/09 14:29:43;;;;;;;8.77;4.88;;;26.70;45.80;;;;;;6244310;28;20056;-77
2021/09/09 14:32:44;;;;;;;7.70;4.38;;;26.80;45.70;;;;;;6231224;28;20096;-77
2021/09/09 14:35:45;;;;;;;8.48;4.18;;;26.80;45.30;;;;;;6243036;28;20443;-78
2021/09/09 14:39:00;;;;;;;9.48;3.97;;;26.70;44.90;;;;;;6269896;28;20087;-78
2021/09/09 14:42:02;;;;;;;7.53;4.65;;;26.70;45.10;;;;;;6255674;28;20041;-77
2021/09/09 14:45:04;;;;;;;8.02;3.83;;;26.60;45.60;;;;;;6248017;28;20034;-77
2021/09/09 14:48:05;;;;;;;6.65;3.83;;;26.60;45.20;;;;;;6248810;28;20038;-77
2021/09/09 14:51:06;;;;;;;6.75;3.63;;;26.60;44.90;;;;;;6229990;28;20033;-77
2021/09/09 14:54:07;;;;;;;5.32;3.38;;;26.50;44.80;;;;;;6247449;28;20061;-77
2021/09/09 14:57:07;;;;;;;6.50;3.95;;;26.50;45.00;;;;;;6246451;28;20029;-77
2021/09/09 15:00:09;;;;;;;7.85;3.90;;;26.40;45.00;;;;;;6228138;28;20032;-78
2021/09/09 15:03:10;;;;;;;7.00;3.75;;;26.40;45.00;;;;;;6245911;28;20037;-77
2021/09/09 15:06:11;;;;;;;7.28;3.70;;;26.40;45.10;;;;;;6245974;28;20040;-76
2021/09/09 15:09:12;;;;;;;11.25;3.92;;;26.40;45.00;;;;;;6245171;28;20041;-77
2021/09/09 15:12:13;;;;;;;10.25;3.65;;;26.40;45.20;;;;;;6245203;28;20041;-77
2021/09/09 15:15:16;;;;;;;4.60;3.05;;;26.30;45.40;;;;;;6244547;28;20355;-78
2021/09/09 15:18:17;;;;;;;7.07;3.20;;;26.30;45.40;;;;;;6218943;28;20379;-77
2021/09/09 15:21:18;;;;;;;4.07;3.13;;;26.30;45.40;;;;;;6229149;28;20053;-77
2021/09/09 15:24:19;;;;;;;8.18;3.25;;;26.30;45.50;;;;;;6244273;28;20037;-77
2021/09/09 15:27:20;;;;;;;9.80;4.07;;;26.30;45.60;;;;;;6245711;28;20103;-77
2021/09/09 15:30:21;;;;;;;6.15;3.70;;;26.30;45.80;;;;;;6218271;28;20041;-77
2021/09/09 15:33:21;;;;;;;4.43;3.28;;;26.20;45.80;;;;;;6237630;28;20064;-78
2021/09/09 15:36:25;;;;;;;5.63;3.70;;;26.30;46.10;;;;;;6228717;28;20091;-78
2021/09/09 15:39:28;;;;;;;7.20;3.47;;;26.30;46.30;;;;;;6228226;28;20327;-78
2021/09/09 15:42:29;;;;;;;5.40;3.72;;;26.30;46.50;;;;;;6245459;28;20348;-78
2021/09/09 15:45:31;;;;;;;7.57;4.32;;;26.20;46.60;;;;;;6227734;28;20045;-76